Time;durP1;ratioP1;P1;durP2;ratioP2;P2;SDS_P1;SDS_P2;PMS_P1;PMS_P2;Temp;Humidity;BMP_temperature;BMP_pressure;BME280_temperature;BME280_humidity;BME280_pressure;Samples;Min_cycle;Max_cycle;Signal;HPM_P1;HPM_P2
2021/11/24 00:00:05;;;;;;;;;;;9.50;99.90;;;;;;5008056;28;19914;-67
2021/11/24 00:02:30;;;;;;;;;;;9.50;99.90;;;;;;5008474;28;19964;-65
2021/11/24 00:04:56;;;;;;;;;;;9.40;99.90;;;;;;5007815;28;20380;-65
2021/11/24 00:07:21;;;;;;;;;;;9.40;99.90;;;;;;5008041;28;19909;-65
2021/11/24 00:09:47;;;;;;;;;;;9.30;99.90;;;;;;5011823;28;19909;-65
2021/11/24 00:12:12;;;;;;;;;;;9.30;99.90;;;;;;5014485;28;19960;-65
2021/11/24 00:14:38;;;;;;;;;;;9.20;99.90;;;;;;5010027;28;19909;-66
2021/11/24 00:17:03;;;;;;;;;;;9.10;99.90;;;;;;5012457;28;19925;-65
2021/11/24 00:19:29;;;;;;;;;;;9.20;99.90;;;;;;5007290;28;19929;-65
2021/11/24 00:21:54;;;;;;;;;;;9.20;99.90;;;;;;5007085;28;20305;-65
2021/11/24 00:24:21;;;;;;;;;;;9.00;99.90;;;;;;5008842;28;19909;-65
2021/11/24 00:26:47;;;;;;;;;;;8.90;99.90;;;;;;5007261;28;19927;-65
2021/11/24 00:29:12;;;;;;;;;;;9.00;99.90;;;;;;5007454;28;19910;-66
2021/11/24 00:31:38;;;;;;;;;;;9.10;99.90;;;;;;5006901;28;19955;-66
2021/11/24 00:34:03;;;;;;;;;;;9.20;99.90;;;;;;5005610;28;19913;-65
2021/11/24 00:36:29;;;;;;;;;;;9.20;99.90;;;;;;5010127;28;20369;-66
2021/11/24 00:38:54;;;;;;;;;;;9.20;99.90;;;;;;5021556;28;20413;-66
2021/11/24 00:41:20;;;;;;;;;;;9.30;99.90;;;;;;5007731;28;19913;-69
2021/11/24 00:43:45;;;;;;;;;;;9.30;99.90;;;;;;5008358;28;19921;-66
2021/11/24 00:46:11;;;;;;;;;;;9.30;99.90;;;;;;5010861;28;19920;-66
2021/11/24 00:48:36;;;;;;;;;;;9.30;99.90;;;;;;5014706;28;19917;-66
2021/11/24 00:51:02;;;;;;;;;;;9.30;99.90;;;;;;5011214;28;20349;-65
2021/11/24 00:53:28;;;;;;;;;;;9.10;99.90;;;;;;5010631;28;19952;-65
2021/11/24 00:55:53;;;;;;;;;;;9.00;99.90;;;;;;5019634;28;19921;-65
2021/11/24 00:58:19;;;;;;;;;;;9.00;99.90;;;;;;4998569;28;19921;-66
2021/11/24 01:00:45;;;;;;;;;;;9.10;99.90;;;;;;5013442;28;19941;-66
2021/11/24 01:03:10;;;;;;;;;;;9.10;99.90;;;;;;5011496;28;19929;-64
2021/11/24 01:05:36;;;;;;;;;;;9.00;99.90;;;;;;5011469;28;19922;-65
2021/11/24 01:08:02;;;;;;;;;;;8.70;99.90;;;;;;5015480;28;19917;-64
2021/11/24 01:10:27;;;;;;;;;;;8.30;99.90;;;;;;5008049;28;19914;-65
2021/11/24 01:12:53;;;;;;;;;;;8.20;99.90;;;;;;5009248;28;20871;-65
2021/11/24 01:15:18;;;;;;;;;;;8.20;99.90;;;;;;5010221;28;19961;-65
2021/11/24 01:17:44;;;;;;;;;;;8.30;99.90;;;;;;5009061;28;19925;-66
2021/11/24 01:20:10;;;;;;;;;;;8.40;99.90;;;;;;5009809;28;20361;-66
2021/11/24 01:22:36;;;;;;;;;;;8.40;99.90;;;;;;5009505;28;19967;-66
2021/11/24 01:25:02;;;;;;;;;;;8.30;99.90;;;;;;5011223;28;19921;-65
2021/11/24 01:27:27;;;;;;;;;;;8.50;99.90;;;;;;5014447;28;19925;-65
2021/11/24 01:29:53;;;;;;;;;;;8.60;99.90;;;;;;5009301;28;19913;-66
2021/11/24 01:32:18;;;;;;;;;;;8.80;99.90;;;;;;5009902;28;19979;-65
2021/11/24 01:34:44;;;;;;;;;;;8.90;99.90;;;;;;5008453;28;20285;-65
2021/11/24 01:37:09;;;;;;;;;;;8.90;99.90;;;;;;5009040;28;20381;-66
2021/11/24 01:39:35;;;;;;;;;;;9.00;99.90;;;;;;5008441;28;20007;-65
2021/11/24 01:42:00;;;;;;;;;;;9.10;99.90;;;;;;5010506;28;19910;-66
2021/11/24 01:44:27;;;;;;;;;;;9.10;99.90;;;;;;5009325;28;19913;-65
2021/11/24 01:46:54;;;;;;;;;;;8.90;99.90;;;;;;5026486;28;19918;-66
2021/11/24 01:49:21;;;;;;;;;;;8.80;99.90;;;;;;5011064;28;20382;-65
2021/11/24 01:51:46;;;;;;;;;;;8.80;99.90;;;;;;5014668;28;19924;-65
2021/11/24 01:54:13;;;;;;;;;;;8.80;99.90;;;;;;5016490;28;19917;-66
2021/11/24 01:56:39;;;;;;;;;;;8.70;99.90;;;;;;5008784;28;19953;-66
2021/11/24 01:59:04;;;;;;;;;;;8.80;99.90;;;;;;5010522;28;20164;-65
2021/11/24 02:01:29;;;;;;;;;;;8.80;99.90;;;;;;5006061;28;19953;-66
2021/11/24 02:03:55;;;;;;;;;;;8.80;99.90;;;;;;5010098;28;19918;-65
2021/11/24 02:06:20;;;;;;;;;;;8.60;99.90;;;;;;5007754;28;19928;-65
2021/11/24 02:08:46;;;;;;;;;;;8.30;99.90;;;;;;5007776;28;20604;-66
2021/11/24 02:11:11;;;;;;;;;;;8.40;99.90;;;;;;5009943;28;20508;-65
2021/11/24 02:13:37;;;;;;;;;;;8.50;99.90;;;;;;5011965;28;19917;-65
2021/11/24 02:16:02;;;;;;;;;;;8.60;99.90;;;;;;5030140;28;19909;-65
2021/11/24 02:18:28;;;;;;;;;;;8.60;99.90;;;;;;5012521;28;19956;-66
2021/11/24 02:20:53;;;;;;;;;;;8.70;99.90;;;;;;5025682;28;19948;-65
2021/11/24 02:23:19;;;;;;;;;;;8.80;99.90;;;;;;5009848;28;19914;-65
2021/11/24 02:25:45;;;;;;;;;;;8.80;99.90;;;;;;5009536;28;20408;-66
2021/11/24 02:28:11;;;;;;;;;;;8.90;99.90;;;;;;5009444;28;20425;-65
2021/11/24 02:30:37;;;;;;;;;;;8.90;99.90;;;;;;5009314;28;20016;-66
2021/11/24 02:33:03;;;;;;;;;;;9.00;99.90;;;;;;5009113;28;19996;-66
2021/11/24 02:35:29;;;;;;;;;;;8.90;99.90;;;;;;5009291;28;19921;-66
2021/11/24 02:37:54;;;;;;;;;;;8.90;99.90;;;;;;5015971;28;19914;-65
2021/11/24 02:40:20;;;;;;;;;;;8.90;99.90;;;;;;5039904;28;19917;-65
2021/11/24 02:42:45;;;;;;;;;;;8.80;99.90;;;;;;5028130;28;19932;-66
2021/11/24 02:45:11;;;;;;;;;;;8.90;99.90;;;;;;5025055;28;19967;-65
2021/11/24 02:47:37;;;;;;;;;;;8.70;99.90;;;;;;5031424;28;19913;-66
2021/11/24 02:50:03;;;;;;;;;;;8.70;99.90;;;;;;5045024;28;20273;-66
2021/11/24 02:52:29;;;;;;;;;;;8.90;99.90;;;;;;5014276;28;19997;-66
2021/11/24 02:54:56;;;;;;;;;;;9.00;99.90;;;;;;5017796;28;20300;-66
2021/11/24 02:57:32;;;;;;;;;;;9.10;99.90;;;;;;5042909;28;19992;-66
2021/11/24 02:59:57;;;;;;;;;;;9.10;99.90;;;;;;5020120;28;20508;-67
2021/11/24 03:02:26;;;;;;;;;;;9.00;99.90;;;;;;5013902;28;19987;-66
2021/11/24 03:04:52;;;;;;;;;;;9.00;99.90;;;;;;5008621;28;19928;-65
2021/11/24 03:07:17;;;;;;;;;;;8.90;99.90;;;;;;5015365;28;19918;-65
2021/11/24 03:09:45;;;;;;;;;;;8.90;99.90;;;;;;4999931;28;19936;-67
2021/11/24 03:12:11;;;;;;;;;;;8.90;99.90;;;;;;5029132;28;19916;-65
2021/11/24 03:14:36;;;;;;;;;;;9.10;99.90;;;;;;5012280;28;19914;-66
2021/11/24 03:17:02;;;;;;;;;;;9.00;99.90;;;;;;5009045;28;19917;-66
2021/11/24 03:19:27;;;;;;;;;;;9.00;99.90;;;;;;5008899;28;20005;-66
2021/11/24 03:21:52;;;;;;;;;;;9.10;99.90;;;;;;5009336;28;19955;-66
2021/11/24 03:24:18;;;;;;;;;;;9.10;99.90;;;;;;5008165;28;19956;-66
2021/11/24 03:26:43;;;;;;;;;;;9.00;99.90;;;;;;5008557;28;19913;-65
2021/11/24 03:29:09;;;;;;;;;;;8.90;99.90;;;;;;5014726;28;20308;-66
2021/11/24 03:31:34;;;;;;;;;;;8.90;99.90;;;;;;5014953;28;19910;-66
2021/11/24 03:34:00;;;;;;;;;;;8.80;99.90;;;;;;5008607;28;19920;-66
2021/11/24 03:36:25;;;;;;;;;;;8.80;99.90;;;;;;5011129;28;19948;-65
2021/11/24 03:38:51;;;;;;;;;;;8.90;99.90;;;;;;5008162;28;19972;-65
2021/11/24 03:41:16;;;;;;;;;;;9.00;99.90;;;;;;5008439;28;19913;-65
2021/11/24 03:43:42;;;;;;;;;;;9.00;99.90;;;;;;5020987;28;19913;-65
2021/11/24 03:46:07;;;;;;;;;;;8.80;99.90;;;;;;5028245;28;20348;-65
2021/11/24 03:48:33;;;;;;;;;;;8.80;99.90;;;;;;5012989;28;19976;-64
2021/11/24 03:50:58;;;;;;;;;;;8.60;99.90;;;;;;5020988;28;20397;-65
2021/11/24 03:53:24;;;;;;;;;;;8.40;99.90;;;;;;5008250;28;19914;-64
2021/11/24 03:55:49;;;;;;;;;;;8.30;99.90;;;;;;5014214;28;19909;-65
2021/11/24 03:58:15;;;;;;;;;;;8.40;99.90;;;;;;5012567;28;19917;-65
2021/11/24 04:00:40;;;;;;;;;;;8.50;99.90;;;;;;5035745;28;20393;-64
2021/11/24 04:03:06;;;;;;;;;;;8.60;99.90;;;;;;5026563;28;19920;-64
2021/11/24 04:05:31;;;;;;;;;;;8.60;99.90;;;;;;5008242;28;20024;-65
2021/11/24 04:07:57;;;;;;;;;;;8.60;99.90;;;;;;5008465;28;20334;-64
2021/11/24 04:10:22;;;;;;;;;;;8.70;99.90;;;;;;5008053;28;19910;-64
2021/11/24 04:12:48;;;;;;;;;;;8.60;99.90;;;;;;5008618;28;20165;-65
2021/11/24 04:15:14;;;;;;;;;;;8.60;99.90;;;;;;5008873;28;19949;-65
2021/11/24 04:17:40;;;;;;;;;;;8.80;99.90;;;;;;5020006;28;19920;-66
2021/11/24 04:20:07;;;;;;;;;;;8.90;99.90;;;;;;5016437;28;20298;-64
2021/11/24 04:22:32;;;;;;;;;;;8.80;99.90;;;;;;5012782;28;19948;-64
2021/11/24 04:24:58;;;;;;;;;;;8.80;99.90;;;;;;5009860;28;20372;-65
2021/11/24 04:27:23;;;;;;;;;;;8.80;99.90;;;;;;5009608;28;20302;-64
2021/11/24 04:29:49;;;;;;;;;;;8.90;99.90;;;;;;5009200;28;19913;-65
2021/11/24 04:32:17;;;;;;;;;;;8.90;99.90;;;;;;5008585;28;19913;-65
2021/11/24 04:34:42;;;;;;;;;;;8.90;99.90;;;;;;5007921;28;20306;-64
2021/11/24 04:37:08;;;;;;;;;;;8.90;99.90;;;;;;5005678;28;20020;-65
2021/11/24 04:39:33;;;;;;;;;;;8.70;99.90;;;;;;5007335;28;20218;-65
2021/11/24 04:41:59;;;;;;;;;;;8.70;99.90;;;;;;5022952;28;19940;-65
2021/11/24 04:44:24;;;;;;;;;;;8.60;99.90;;;;;;5007417;28;19949;-65
2021/11/24 04:46:50;;;;;;;;;;;8.60;99.90;;;;;;5009802;28;19918;-65
2021/11/24 04:49:15;;;;;;;;;;;8.60;99.90;;;;;;5013433;28;20341;-65
2021/11/24 04:51:41;;;;;;;;;;;8.60;99.90;;;;;;5031160;28;19918;-64
2021/11/24 04:54:06;;;;;;;;;;;8.80;99.90;;;;;;5007307;28;19913;-64
2021/11/24 04:56:32;;;;;;;;;;;8.80;99.90;;;;;;5007274;28;19940;-65
2021/11/24 04:58:59;;;;;;;;;;;8.80;99.90;;;;;;5007803;28;20397;-65
2021/11/24 05:01:25;;;;;;;;;;;8.80;99.90;;;;;;5008112;28;19944;-66
2021/11/24 05:03:51;;;;;;;;;;;8.80;99.90;;;;;;5007306;28;19957;-66
2021/11/24 05:06:18;;;;;;;;;;;8.70;99.90;;;;;;5012355;28;19917;-64
2021/11/24 05:08:44;;;;;;;;;;;8.50;99.90;;;;;;5011826;28;20371;-65
2021/11/24 05:11:10;;;;;;;;;;;8.50;99.90;;;;;;5004728;28;19910;-65
2021/11/24 05:13:36;;;;;;;;;;;8.50;99.90;;;;;;5006477;28;20382;-64
2021/11/24 05:16:04;;;;;;;;;;;8.60;99.90;;;;;;4997014;28;19944;-66
2021/11/24 05:18:35;;;;;;;;;;;8.60;99.90;;;;;;5005514;28;19909;-64
2021/11/24 05:21:11;;;;;;;;;;;8.60;99.90;;;;;;5014492;28;19959;-65
2021/11/24 05:23:38;;;;;;;;;;;8.70;99.90;;;;;;5014188;28;19910;-66
2021/11/24 05:26:04;;;;;;;;;;;8.70;99.90;;;;;;5005860;28;19921;-66
2021/11/24 05:28:30;;;;;;;;;;;8.70;99.90;;;;;;5024295;28;20370;-66
2021/11/24 05:30:56;;;;;;;;;;;8.70;99.90;;;;;;5009145;28;19909;-64
2021/11/24 05:33:21;;;;;;;;;;;8.50;99.90;;;;;;5009458;28;20185;-66
2021/11/24 05:35:47;;;;;;;;;;;8.60;99.90;;;;;;5008885;28;20318;-66
2021/11/24 05:38:12;;;;;;;;;;;8.50;99.90;;;;;;5009865;28;19910;-65
2021/11/24 05:40:38;;;;;;;;;;;8.50;99.90;;;;;;5008880;28;19960;-65
2021/11/24 05:43:03;;;;;;;;;;;8.50;99.90;;;;;;5011299;28;20062;-66
2021/11/24 05:48:00;;;;;;;;;;;8.40;99.90;;;;;;5010964;28;19913;-64
2021/11/24 05:50:26;;;;;;;;;;;8.40;99.90;;;;;;5009293;28;19960;-66
2021/11/24 05:52:52;;;;;;;;;;;8.50;99.90;;;;;;5012304;28;19920;-66
2021/11/24 05:55:18;;;;;;;;;;;8.40;99.90;;;;;;5011655;28;20377;-65
2021/11/24 05:57:44;;;;;;;;;;;8.50;99.90;;;;;;5010820;28;20008;-65
2021/11/24 06:00:10;;;;;;;;;;;8.60;99.90;;;;;;5010012;28;19914;-65
2021/11/24 06:02:35;;;;;;;;;;;8.60;99.90;;;;;;5008744;28;19910;-64
2021/11/24 06:05:00;;;;;;;;;;;8.60;99.90;;;;;;5007430;28;19917;-64
2021/11/24 06:07:26;;;;;;;;;;;8.50;99.90;;;;;;5015238;28;20008;-64
2021/11/24 06:09:51;;;;;;;;;;;8.50;99.90;;;;;;5010403;28;19977;-64
2021/11/24 06:12:17;;;;;;;;;;;8.50;99.90;;;;;;5010243;28;20368;-66
2021/11/24 06:14:44;;;;;;;;;;;8.50;99.90;;;;;;5009497;28;20286;-66
2021/11/24 06:17:10;;;;;;;;;;;8.40;99.90;;;;;;5009259;28;19917;-65
2021/11/24 06:19:35;;;;;;;;;;;8.40;99.90;;;;;;5007870;28;19988;-65
2021/11/24 06:22:01;;;;;;;;;;;8.30;99.90;;;;;;5008861;28;19909;-65
2021/11/24 06:24:26;;;;;;;;;;;8.30;99.90;;;;;;5009062;28;19914;-65
2021/11/24 06:26:52;;;;;;;;;;;8.30;99.90;;;;;;5009836;28;19925;-64
2021/11/24 06:29:17;;;;;;;;;;;8.20;99.90;;;;;;5009725;28;19967;-65
2021/11/24 06:31:43;;;;;;;;;;;8.30;99.90;;;;;;5003059;28;19925;-63
2021/11/24 06:34:08;;;;;;;;;;;8.30;99.90;;;;;;5021057;28;19910;-63
2021/11/24 06:36:34;;;;;;;;;;;8.30;99.90;;;;;;5009410;28;19925;-65
2021/11/24 06:38:59;;;;;;;;;;;8.40;99.90;;;;;;5018166;28;20414;-65
2021/11/24 06:41:24;;;;;;;;;;;8.40;99.90;;;;;;5020355;28;19910;-65
2021/11/24 06:43:50;;;;;;;;;;;8.50;99.90;;;;;;5016982;28;20362;-65
2021/11/24 06:46:15;;;;;;;;;;;8.50;99.90;;;;;;5012193;28;20324;-65
2021/11/24 06:48:41;;;;;;;;;;;8.30;99.90;;;;;;5013852;28;19917;-65
2021/11/24 06:51:06;;;;;;;;;;;8.30;99.90;;;;;;5009286;28;19919;-65
2021/11/24 06:53:32;;;;;;;;;;;8.10;99.90;;;;;;5007367;28;19914;-66
2021/11/24 06:55:57;;;;;;;;;;;8.10;99.90;;;;;;5009037;28;19964;-65
2021/11/24 06:58:23;;;;;;;;;;;8.10;99.90;;;;;;5007586;28;20130;-66
2021/11/24 07:00:48;;;;;;;;;;;8.20;99.90;;;;;;5007244;28;20392;-65
2021/11/24 07:03:14;;;;;;;;;;;8.20;99.90;;;;;;5007847;28;19913;-65
2021/11/24 07:05:39;;;;;;;;;;;8.30;99.90;;;;;;5007362;28;20359;-65
2021/11/24 07:08:05;;;;;;;;;;;8.30;99.90;;;;;;5013289;28;19909;-66
2021/11/24 07:10:32;;;;;;;;;;;8.30;99.90;;;;;;5009198;28;20344;-66
2021/11/24 07:12:57;;;;;;;;;;;8.30;99.90;;;;;;5009679;28;19917;-65
2021/11/24 07:15:23;;;;;;;;;;;8.30;99.90;;;;;;5009245;28;19910;-65
2021/11/24 07:17:49;;;;;;;;;;;8.20;99.90;;;;;;5003887;28;20043;-64
2021/11/24 07:20:15;;;;;;;;;;;8.20;99.90;;;;;;5003171;28;19914;-64
2021/11/24 07:22:41;;;;;;;;;;;8.20;99.90;;;;;;5005326;28;19909;-65
2021/11/24 07:25:07;;;;;;;;;;;8.20;99.90;;;;;;5005134;28;19917;-64
2021/11/24 07:27:33;;;;;;;;;;;8.30;99.90;;;;;;5006425;28;19924;-64
2021/11/24 07:29:58;;;;;;;;;;;8.40;99.90;;;;;;5007197;28;19913;-65
2021/11/24 07:32:24;;;;;;;;;;;8.50;99.90;;;;;;5022011;28;19913;-64
2021/11/24 07:34:50;;;;;;;;;;;8.50;99.90;;;;;;5026172;28;20282;-64
2021/11/24 07:37:15;;;;;;;;;;;8.60;99.90;;;;;;5039543;28;19932;-64
2021/11/24 07:39:40;;;;;;;;;;;8.70;99.90;;;;;;5035384;28;19964;-64
2021/11/24 07:42:06;;;;;;;;;;;8.60;99.90;;;;;;5035168;28;19909;-64
2021/11/24 07:44:32;;;;;;;;;;;8.50;99.90;;;;;;5021192;28;19909;-64
2021/11/24 07:46:57;;;;;;;;;;;8.50;99.90;;;;;;5031291;28;19917;-65
2021/11/24 07:49:22;;;;;;;;;;;8.50;99.90;;;;;;5001606;28;19910;-66
2021/11/24 07:51:48;;;;;;;;;;;8.50;99.90;;;;;;5027779;28;20020;-64
2021/11/24 07:54:13;;;;;;;;;;;8.60;99.90;;;;;;5045372;28;19971;-66
2021/11/24 07:56:39;;;;;;;;;;;8.60;99.90;;;;;;5030735;28;19923;-62
2021/11/24 07:59:04;;;;;;;;;;;8.60;99.90;;;;;;5031225;28;19916;-65
2021/11/24 08:01:30;;;;;;;;;;;8.60;99.90;;;;;;5046073;28;20405;-65
2021/11/24 08:03:55;;;;;;;;;;;8.60;99.90;;;;;;5015868;28;20330;-64
2021/11/24 08:06:21;;;;;;;;;;;8.50;99.90;;;;;;5014209;28;19988;-64
2021/11/24 08:08:46;;;;;;;;;;;8.50;99.90;;;;;;5028278;28;20385;-64
2021/11/24 08:11:12;;;;;;;;;;;8.40;99.90;;;;;;5028300;28;20304;-64
2021/11/24 08:13:37;;;;;;;;;;;8.50;99.90;;;;;;5027762;28;20111;-64
2021/11/24 08:16:03;;;;;;;;;;;8.50;99.90;;;;;;5028441;28;20498;-64
2021/11/24 08:18:28;;;;;;;;;;;8.60;99.90;;;;;;5016125;28;20091;-64
2021/11/24 08:20:54;;;;;;;;;;;8.60;99.90;;;;;;5016311;28;20321;-64
2021/11/24 08:23:19;;;;;;;;;;;8.70;99.90;;;;;;5023999;28;20189;-63
2021/11/24 08:25:45;;;;;;;;;;;8.80;99.90;;;;;;5028399;28;19921;-64
2021/11/24 08:28:10;;;;;;;;;;;8.70;99.90;;;;;;5028107;28;20046;-64
2021/11/24 08:30:36;;;;;;;;;;;8.70;99.90;;;;;;5027918;28;19909;-65
2021/11/24 08:33:01;;;;;;;;;;;8.70;99.90;;;;;;5001303;28;19953;-63
2021/11/24 08:35:27;;;;;;;;;;;8.60;99.90;;;;;;4990261;28;20327;-65
2021/11/24 08:37:52;;;;;;;;;;;8.60;99.90;;;;;;4991923;28;20263;-64
2021/11/24 08:40:18;;;;;;;;;;;8.60;99.90;;;;;;4990510;28;19918;-64
2021/11/24 08:42:43;;;;;;;;;;;8.50;99.90;;;;;;5003061;28;19913;-63
2021/11/24 08:45:10;;;;;;;;;;;8.60;99.90;;;;;;5013951;28;20518;-64
2021/11/24 08:47:36;;;;;;;;;;;8.70;99.90;;;;;;5022060;28;19913;-65
2021/11/24 08:50:03;;;;;;;;;;;8.70;99.90;;;;;;5012170;28;20016;-65
2021/11/24 08:52:28;;;;;;;;;;;8.80;99.90;;;;;;5012339;28;20020;-64
2021/11/24 08:54:54;;;;;;;;;;;8.80;99.90;;;;;;5009567;28;20008;-64
2021/11/24 08:57:20;;;;;;;;;;;8.90;99.90;;;;;;5012024;28;19909;-64
2021/11/24 08:59:47;;;;;;;;;;;8.90;99.90;;;;;;5010822;28;19921;-65
2021/11/24 09:02:13;;;;;;;;;;;8.80;99.90;;;;;;5010451;28;19914;-64
2021/11/24 09:04:38;;;;;;;;;;;8.70;99.90;;;;;;5011659;28;19917;-65
2021/11/24 09:07:04;;;;;;;;;;;8.60;99.90;;;;;;5012050;28;20595;-65
2021/11/24 09:09:29;;;;;;;;;;;8.50;99.90;;;;;;5015971;28;19995;-64
2021/11/24 09:11:55;;;;;;;;;;;8.60;99.90;;;;;;5010402;28;19971;-63
2021/11/24 09:14:20;;;;;;;;;;;8.60;99.90;;;;;;5010510;28;19940;-65
2021/11/24 09:16:46;;;;;;;;;;;8.60;99.90;;;;;;5009424;28;19953;-63
2021/11/24 09:19:12;;;;;;;;;;;8.80;99.90;;;;;;5010333;28;20059;-64
2021/11/24 09:21:38;;;;;;;;;;;8.80;99.90;;;;;;5010086;28;19921;-65
2021/11/24 09:24:05;;;;;;;;;;;8.80;99.90;;;;;;5010581;28;19915;-64
2021/11/24 09:26:42;;;;;;;;;;;8.80;99.90;;;;;;5009931;28;20052;-64
2021/11/24 09:29:08;;;;;;;;;;;8.80;99.90;;;;;;5009128;28;20290;-64
2021/11/24 09:31:34;;;;;;;;;;;8.70;99.90;;;;;;5010126;28;19913;-65
2021/11/24 09:33:59;;;;;;;;;;;8.80;99.90;;;;;;5010877;28;20593;-65
2021/11/24 09:36:25;;;;;;;;;;;8.80;99.90;;;;;;5010731;28;19961;-65
2021/11/24 09:38:51;;;;;;;;;;;8.70;99.90;;;;;;5010174;28;19913;-64
2021/11/24 09:41:20;;;;;;;;;;;8.70;99.90;;;;;;5010414;28;19920;-64
2021/11/24 09:43:49;;;;;;;;;;;8.80;99.90;;;;;;5011523;28;19917;-63
2021/11/24 09:46:16;;;;;;;;;;;8.90;99.90;;;;;;5010708;28;20365;-64
2021/11/24 09:48:42;;;;;;;;;;;8.80;99.90;;;;;;5010614;28;19910;-64
2021/11/24 09:51:08;;;;;;;;;;;8.80;99.90;;;;;;5012503;28;20348;-64
2021/11/24 09:53:34;;;;;;;;;;;8.90;99.90;;;;;;5010181;28;19924;-64
2021/11/24 09:56:00;;;;;;;;;;;8.80;99.90;;;;;;5011439;28;19910;-64
2021/11/24 09:58:25;;;;;;;;;;;8.80;99.90;;;;;;5011336;28;19940;-64
2021/11/24 10:00:51;;;;;;;;;;;8.80;99.90;;;;;;5008205;28;20004;-64
2021/11/24 10:03:17;;;;;;;;;;;8.70;99.90;;;;;;5025743;28;19925;-67
2021/11/24 10:05:44;;;;;;;;;;;8.70;99.90;;;;;;5014990;28;19921;-66
2021/11/24 10:08:10;;;;;;;;;;;8.70;99.90;;;;;;5011917;28;19971;-64
2021/11/24 10:10:35;;;;;;;;;;;8.80;99.90;;;;;;5013762;28;20374;-65
2021/11/24 10:13:01;;;;;;;;;;;8.80;99.90;;;;;;5015311;28;20441;-65
2021/11/24 10:15:46;;;;;;;;;;;8.80;99.90;;;;;;5018079;28;20008;-66
2021/11/24 10:18:14;;;;;;;;;;;8.90;99.90;;;;;;5023936;28;19921;-64
2021/11/24 10:20:45;;;;;;;;;;;9.00;99.90;;;;;;5038316;28;19914;-64
2021/11/24 10:23:20;;;;;;;;;;;9.00;99.90;;;;;;5012826;28;19910;-64
2021/11/24 10:25:46;;;;;;;;;;;9.00;99.90;;;;;;5011130;28;20358;-66
2021/11/24 10:28:23;;;;;;;;;;;8.90;99.90;;;;;;5011163;28;19916;-66
2021/11/24 10:30:48;;;;;;;;;;;9.00;99.90;;;;;;5010698;28;19913;-64
2021/11/24 10:33:15;;;;;;;;;;;9.00;99.90;;;;;;4997899;28;19914;-66
2021/11/24 10:35:40;;;;;;;;;;;8.90;99.90;;;;;;5025146;28;19996;-66
2021/11/24 10:38:13;;;;;;;;;;;9.00;99.90;;;;;;5013101;28;19914;-66
2021/11/24 10:40:45;;;;;;;;;;;8.90;99.90;;;;;;5004197;28;19949;-64
2021/11/24 10:43:12;;;;;;;;;;;9.00;99.90;;;;;;5004401;28;19917;-66
2021/11/24 10:45:38;;;;;;;;;;;8.90;99.90;;;;;;5004619;28;19932;-65
2021/11/24 10:48:03;;;;;;;;;;;8.70;99.90;;;;;;5005309;28;19910;-65
2021/11/24 10:50:30;;;;;;;;;;;8.70;99.90;;;;;;5005056;28;20005;-66
2021/11/24 10:52:56;;;;;;;;;;;8.70;99.90;;;;;;5005571;28;20006;-67
2021/11/24 10:55:26;;;;;;;;;;;8.80;99.90;;;;;;5006461;28;20000;-65
2021/11/24 10:57:59;;;;;;;;;;;8.80;99.90;;;;;;5006025;28;20008;-64
2021/11/24 11:00:31;;;;;;;;;;;8.90;99.90;;;;;;5004283;28;19914;-67
2021/11/24 11:02:57;;;;;;;;;;;9.00;99.90;;;;;;5006581;28;19921;-67
2021/11/24 11:05:24;;;;;;;;;;;9.00;99.90;;;;;;5006975;28;20427;-66
2021/11/24 11:07:50;;;;;;;;;;;9.10;99.90;;;;;;5011700;28;19913;-65
2021/11/24 11:10:17;;;;;;;;;;;9.20;99.90;;;;;;5010426;28;19910;-66
2021/11/24 11:12:44;;;;;;;;;;;9.20;99.90;;;;;;5019423;28;19909;-66
2021/11/24 11:15:19;;;;;;;;;;;9.30;99.90;;;;;;5017003;28;19914;-64
2021/11/24 11:17:48;;;;;;;;;;;9.40;99.90;;;;;;5027292;28;19909;-65
2021/11/24 11:20:13;;;;;;;;;;;9.20;99.90;;;;;;5005492;28;19910;-65
2021/11/24 11:22:39;;;;;;;;;;;9.10;99.90;;;;;;5009698;28;20874;-65
2021/11/24 11:25:05;;;;;;;;;;;8.90;99.90;;;;;;5008206;28;19910;-67
2021/11/24 11:27:31;;;;;;;;;;;8.90;99.90;;;;;;5010558;28;19909;-64
2021/11/24 11:29:59;;;;;;;;;;;8.80;99.90;;;;;;5008681;28;20033;-65
2021/11/24 11:32:25;;;;;;;;;;;8.80;99.90;;;;;;5006582;28;19924;-65
2021/11/24 11:34:50;;;;;;;;;;;8.90;99.90;;;;;;5011833;28;20293;-66
2021/11/24 11:37:17;;;;;;;;;;;8.90;99.90;;;;;;5008729;28;19956;-67
2021/11/24 11:39:43;;;;;;;;;;;8.80;99.90;;;;;;5007094;28;20366;-65
2021/11/24 11:42:09;;;;;;;;;;;8.80;99.90;;;;;;5004206;28;19921;-66
2021/11/24 11:44:35;;;;;;;;;;;8.90;99.90;;;;;;5008675;28;20036;-64
2021/11/24 11:47:00;;;;;;;;;;;8.90;99.90;;;;;;5005326;28;20056;-66
2021/11/24 11:49:28;;;;;;;;;;;8.90;99.90;;;;;;5004472;28;20380;-65
2021/11/24 11:52:03;;;;;;;;;;;8.80;99.90;;;;;;5005808;28;19910;-66
2021/11/24 11:54:30;;;;;;;;;;;8.80;99.90;;;;;;5004022;28;20527;-65
2021/11/24 11:56:55;;;;;;;;;;;8.80;99.90;;;;;;5009274;28;19916;-67
2021/11/24 11:59:25;;;;;;;;;;;8.90;99.90;;;;;;5006229;28;19918;-66
2021/11/24 12:01:51;;;;;;;;;;;8.90;99.90;;;;;;5007189;28;19919;-64
2021/11/24 12:04:26;;;;;;;;;;;8.90;99.90;;;;;;5005996;28;19917;-66
2021/11/24 12:06:51;;;;;;;;;;;9.10;99.90;;;;;;5008417;28;19968;-65
2021/11/24 12:09:20;;;;;;;;;;;9.10;99.90;;;;;;5008263;28;20339;-66
2021/11/24 12:12:07;;;;;;;;;;;9.10;99.90;;;;;;5008999;28;19910;-66
2021/11/24 12:14:51;;;;;;;;;;;9.10;99.90;;;;;;5004891;28;19957;-66
2021/11/24 12:17:32;;;;;;;;;;;9.10;99.90;;;;;;5007640;28;19917;-66
2021/11/24 12:19:59;;;;;;;;;;;8.90;99.90;;;;;;5004369;28;19909;-65
2021/11/24 12:22:43;;;;;;;;;;;9.00;99.90;;;;;;5007874;28;19949;-65
2021/11/24 12:25:30;;;;;;;;;;;9.00;99.90;;;;;;5008038;28;20309;-65
2021/11/24 12:30:37;;;;;;;;;;;9.00;99.90;;;;;;4988054;28;19953;-64
2021/11/24 12:33:03;;;;;;;;;;;9.00;99.90;;;;;;4999918;28;19914;-65
2021/11/24 12:35:29;;;;;;;;;;;9.10;99.90;;;;;;4988533;28;19920;-65
2021/11/24 12:37:55;;;;;;;;;;;9.10;99.90;;;;;;4988140;28;19914;-64
2021/11/24 12:40:28;;;;;;;;;;;9.00;99.90;;;;;;5000845;28;19924;-64
2021/11/24 12:42:58;;;;;;;;;;;9.10;99.90;;;;;;5004516;28;19920;-65
2021/11/24 12:45:23;;;;;;;;;;;8.90;99.90;;;;;;5013718;28;19910;-65
2021/11/24 12:47:55;;;;;;;;;;;8.80;99.90;;;;;;5005921;28;20579;-66
2021/11/24 12:50:22;;;;;;;;;;;8.90;99.90;;;;;;5006435;28;19948;-66
2021/11/24 12:52:58;;;;;;;;;;;9.00;99.90;;;;;;5007964;28;19914;-65
2021/11/24 12:55:24;;;;;;;;;;;9.10;99.90;;;;;;5007214;28;19910;-64
2021/11/24 12:57:50;;;;;;;;;;;9.20;99.90;;;;;;5004725;28;19917;-64
2021/11/24 13:00:30;;;;;;;;;;;9.20;99.90;;;;;;5006199;28;19920;-65
2021/11/24 13:02:55;;;;;;;;;;;9.10;99.90;;;;;;5006610;28;19916;-64
2021/11/24 13:05:21;;;;;;;;;;;9.10;99.90;;;;;;5003625;28;19913;-67
2021/11/24 13:07:54;;;;;;;;;;;9.20;99.90;;;;;;5007075;28;19988;-65
2021/11/24 13:10:20;;;;;;;;;;;9.20;99.90;;;;;;5007653;28;19948;-65
2021/11/24 13:12:46;;;;;;;;;;;9.00;99.90;;;;;;5015444;28;19968;-66
2021/11/24 13:15:11;;;;;;;;;;;9.00;99.90;;;;;;5029804;28;19909;-66
2021/11/24 13:17:40;;;;;;;;;;;9.10;99.90;;;;;;5030069;28;19952;-66
2021/11/24 13:20:10;;;;;;;;;;;9.10;99.90;;;;;;5007073;28;19917;-65
2021/11/24 13:22:37;;;;;;;;;;;9.00;99.90;;;;;;5007265;28;19910;-64
2021/11/24 13:25:03;;;;;;;;;;;9.10;99.90;;;;;;5008319;28;19910;-64
2021/11/24 13:27:49;;;;;;;;;;;9.00;99.90;;;;;;4991147;28;19922;-64
2021/11/24 13:30:16;;;;;;;;;;;9.00;99.90;;;;;;4988079;28;20578;-65
2021/11/24 13:32:57;;;;;;;;;;;8.90;99.90;;;;;;5002193;28;19956;-65
2021/11/24 13:35:23;;;;;;;;;;;9.00;99.90;;;;;;5007612;28;20600;-64
2021/11/24 13:37:48;;;;;;;;;;;9.10;99.90;;;;;;5007773;28;19909;-65
2021/11/24 13:40:14;;;;;;;;;;;9.10;99.90;;;;;;5007852;28;19937;-66
2021/11/24 13:42:40;;;;;;;;;;;9.10;99.90;;;;;;5010537;28;19917;-66
2021/11/24 13:45:06;;;;;;;;;;;9.20;99.90;;;;;;5023241;28;20000;-66
2021/11/24 13:47:32;;;;;;;;;;;9.20;99.90;;;;;;5031120;28;20011;-66
2021/11/24 13:49:58;;;;;;;;;;;9.20;99.90;;;;;;5030920;28;20008;-65
2021/11/24 13:52:26;;;;;;;;;;;9.20;99.90;;;;;;5030403;28;19916;-65
2021/11/24 13:54:52;;;;;;;;;;;9.20;99.90;;;;;;5016528;28;20001;-66
2021/11/24 13:57:18;;;;;;;;;;;9.10;99.90;;;;;;5005100;28;20441;-66
2021/11/24 13:59:47;;;;;;;;;;;9.10;99.90;;;;;;5020302;28;19925;-65
2021/11/24 14:02:14;;;;;;;;;;;9.00;99.90;;;;;;5025097;28;19910;-65
2021/11/24 14:04:44;;;;;;;;;;;8.90;99.90;;;;;;5016271;28;19993;-65
2021/11/24 14:07:10;;;;;;;;;;;8.80;99.90;;;;;;5007644;28;20000;-64
2021/11/24 14:09:42;;;;;;;;;;;8.70;99.90;;;;;;5005324;28;19945;-65
2021/11/24 14:12:10;;;;;;;;;;;8.60;99.90;;;;;;5008871;28;19991;-64
2021/11/24 14:14:42;;;;;;;;;;;8.70;99.90;;;;;;5019195;28;19920;-65
2021/11/24 14:17:08;;;;;;;;;;;8.60;99.90;;;;;;5010356;28;19909;-64
2021/11/24 14:19:34;;;;;;;;;;;8.60;99.90;;;;;;5009654;28;19932;-65
2021/11/24 14:22:01;;;;;;;;;;;8.70;99.90;;;;;;5009266;28;19960;-65
2021/11/24 14:24:26;;;;;;;;;;;8.80;99.90;;;;;;5008871;28;19948;-65
2021/11/24 14:26:52;;;;;;;;;;;8.80;99.90;;;;;;5007431;28;19968;-65
2021/11/24 14:29:18;;;;;;;;;;;8.90;99.90;;;;;;5008025;28;19964;-66
2021/11/24 14:31:53;;;;;;;;;;;9.00;99.90;;;;;;5007970;28;19939;-66